Date,TemperatureHighF,TemperatureAvgF,TemperatureLowF,DewpointHighF,DewpointAvgF,DewpointLowF,HumidityHigh,HumidityAvg,HumidityLow,PressureMaxIn,PressureMinIn,WindSpeedMaxMPH,WindSpeedAvgMPH,GustSpeedMaxMPH,PrecipitationSumIn
2013-1-1,74,64,51,66,60,49,93,86,70,30.07,29.91,5,2,13,0.00
2013-1-2,68,61,54,66,57,48,92,85,73,30.05,29.88,5,2,13,0.01
2013-1-3,54,48,42,48,44,40,93,89,80,30.25,30.04,4,2,13,0.34
2013-1-4,56,45,38,43,39,35,92,80,54,30.31,30.21,4,1,13,0.00
2013-1-5,59,48,40,44,39,35,91,73,44,30.30,30.16,4,1,13,0.04
2013-1-6,56,51,47,47,44,42,88,78,65,30.18,30.07,3,1,13,0.01
2013-1-7,62,52,45,45,41,39,85,67,45,30.24,30.14,6,2,13,0.00
2013-1-8,74,61,50,63,55,45,90,81,68,30.21,30.10,3,1,13,0.00
2013-1-9,70,66,61,67,64,58,93,91,88,30.22,30.11,3,1,13,0.00
2013-1-10,81,71,65,68,65,62,93,83,62,30.22,30.14,6,2,13,0.00
2013-1-11,78,69,61,68,64,59,93,86,69,30.14,30.02,5,2,13,0.00
2013-1-12,79,68,59,67,63,57,93,85,62,30.09,29.97,5,1,13,0.01
2013-1-13,76,71,67,68,66,64,93,86,72,30.02,29.95,7,2,15,0.00
2013-1-14,77,70,64,69,65,62,93,86,68,30.08,29.99,6,1,14,0.00
2013-1-15,76,69,64,68,66,62,93,89,76,30.02,29.93,7,2,13,0.00
2013-1-16,78,70,65,70,67,62,93,89,75,29.96,29.87,6,2,13,0.01
2013-1-17,65,50,43,63,44,34,93,80,65,30.19,29.88,9,5,15,0.09
2013-1-18,60,47,37,41,37,34,90,71,41,30.39,30.19,6,2,13,0.00
2013-1-22,63,50,36,37,33,28,89,56,32,30.28,30.15,6,1,13,0.00
2013-1-23,69,48,32,46,38,30,93,72,40,30.36,30.23,4,0,13,0.00
2013-1-24,73,56,40,57,49,38,93,80,52,30.28,30.17,5,1,13,0.00
2013-1-25,72,60,50,58,53,47,92,81,53,30.25,30.12,5,1,13,0.00
2013-1-26,77,61,48,63,56,46,93,83,58,30.19,30.11,4,1,13,0.00
2013-1-27,75,61,50,61,54,47,93,80,55,30.26,30.17,3,0,13,0.01
2013-1-28,75,64,55,65,59,52,92,83,63,30.25,30.13,4,1,13,0.00
2013-1-29,79,70,64,68,64,60,91,80,61,30.13,29.91,6,2,13,0.00
2013-1-30,77,67,51,71,62,42,92,84,68,29.96,29.61,13,6,17,1.05
2013-1-31,59,46,35,42,33,28,90,62,31,30.23,29.97,7,2,14,0.01
2013-2-1,64,48,34,42,36,31,91,66,35,30.31,30.23,4,1,13,0.00
2013-2-2,66,47,34,44,32,24,91,62,29,30.31,30.11,3,0,13,0.00
2013-2-3,70,54,40,48,42,36,93,69,29,30.17,30.03,6,1,13,0.00
2013-2-4,67,52,38,51,44,36,93,75,49,30.06,29.94,2,0,13,0.00
2013-2-5,66,59,52,61,56,49,93,90,79,29.99,29.90,2,0,13,0.29
2013-2-6,69,61,54,61,57,52,93,87,73,30.06,29.95,3,1,13,0.01
2013-2-7,74,62,54,68,60,52,95,91,80,29.97,29.70,8,2,15,0.51
2013-2-8,73,61,55,62,56,53,93,86,66,30.07,29.87,4,1,13,0.00
2013-2-9,72,56,47,53,48,44,93,76,41,30.19,30.07,3,1,13,0.00
2013-2-10,74,62,48,65,56,45,92,84,70,30.14,29.99,8,3,13,0.00
2013-2-11,77,68,59,70,65,57,93,89,79,30.06,29.95,7,3,13,1.65
2013-2-12,72,65,59,69,63,57,93,93,92,29.98,29.74,7,2,16,0.05
2013-2-13,71,63,49,68,56,45,93,80,49,29.98,29.73,7,3,13,0.25
2013-2-14,49,45,35,47,42,33,93,88,77,30.08,29.90,4,1,13,0.00
2013-2-15,68,50,32,49,41,30,94,74,37,30.09,29.94,4,1,13,0.01
2013-2-16,58,48,38,46,33,21,91,59,34,30.19,29.93,9,3,14,0.00
2013-2-17,57,41,28,33,26,20,88,59,25,30.32,30.18,3,1,13,0.00
2013-2-18,63,47,31,42,35,28,95,67,37,30.29,30.08,6,2,13,0.00
2013-2-19,70,58,47,64,52,37,92,81,63,30.10,29.98,8,2,14,0.05
2013-2-20,63,49,37,37,33,28,86,57,30,30.15,30.03,5,1,13,0.00
2013-2-21,72,56,37,61,46,32,92,71,41,30.06,29.89,4,1,13,0.00
2013-2-22,70,66,64,67,64,62,93,93,92,29.95,29.84,4,2,13,3.54
2013-2-23,72,68,59,69,66,57,93,93,87,29.86,29.75,5,2,13,0.88
2013-2-24,71,62,56,62,58,53,94,87,68,29.92,29.78,4,1,13,0.35
2013-2-25,64,60,56,62,58,54,93,93,90,29.80,29.54,9,4,16,3.35
2013-2-26,70,62,53,68,55,47,94,78,65,29.82,29.43,12,6,15,0.95
2013-2-27,64,54,45,47,45,42,92,74,51,29.96,29.82,6,1,13,0.00
2013-2-28,65,54,44,47,41,35,93,65,39,29.98,29.88,6,2,13,0.00
2013-3-1,54,47,39,40,36,32,91,66,51,30.03,29.93,4,2,13,0.00
2013-3-2,53,43,34,34,30,27,84,62,39,30.07,29.95,8,3,13,0.00
2013-3-3,53,42,32,32,29,27,89,63,37,30.12,30.01,6,2,13,0.00
2013-3-4,65,48,31,48,35,28,92,65,31,30.16,30.00,4,1,13,0.00
2013-3-5,75,65,52,65,58,48,90,81,69,30.02,29.88,10,4,16,0.01
2013-3-7,65,50,40,44,42,37,91,75,38,30.17,30.13,4,1,13,0.00
2013-3-8,75,54,34,48,41,32,93,68,24,30.22,30.10,4,1,13,0.00
2013-3-9,72,56,41,51,43,39,92,66,35,30.18,30.05,4,1,13,0.00
2013-3-10,75,62,50,57,52,41,90,72,51,30.06,29.96,8,2,13,0.00
2013-3-11,73,62,54,63,58,51,93,88,68,29.96,29.73,8,2,16,1.35
2013-3-12,64,54,45,53,42,37,93,68,37,30.08,29.81,5,2,13,0.00
2013-3-13,69,56,41,44,36,26,88,50,29,30.23,30.07,8,2,13,0.00
2013-3-14,65,51,39,38,31,24,86,50,23,30.33,30.18,7,2,13,0.00
2013-3-15,71,54,36,47,41,34,93,67,30,30.24,30.10,6,1,13,0.00
2013-3-16,75,61,46,60,53,44,93,78,55,30.10,29.96,8,2,13,0.00
2013-3-17,68,60,53,63,58,51,93,91,82,29.99,29.88,3,1,13,0.31
2013-3-18,79,68,58,69,64,56,93,88,70,29.91,29.77,6,2,13,0.03
2013-3-19,80,67,59,66,61,56,93,82,57,29.97,29.81,3,1,13,0.04
2013-3-20,72,61,51,56,43,34,93,54,32,30.01,29.85,6,2,13,0.00
2013-3-21,68,54,44,42,35,27,87,53,23,29.98,29.84,5,1,13,0.00
2013-3-22,68,57,45,44,39,35,90,54,32,29.95,29.84,5,1,13,0.00
2013-3-23,71,63,59,68,58,42,93,86,53,29.85,29.59,5,1,13,1.75
2013-3-24,78,70,57,70,64,42,93,83,56,29.75,29.45,10,5,15,0.43
2013-3-25,64,52,42,42,32,25,70,48,27,30.10,29.75,7,4,14,0.00
2013-3-26,57,46,37,32,29,26,70,52,35,30.26,30.11,7,3,17,0.00
2013-3-27,63,47,35,41,33,28,90,61,29,30.34,30.19,4,1,13,0.00
2013-3-28,72,52,34,45,39,32,93,66,27,30.28,30.16,4,1,13,0.00
2013-3-29,75,56,39,52,44,37,93,69,30,30.27,30.16,5,1,13,0.00
2013-3-30,75,60,44,59,51,42,93,73,45,30.18,30.02,5,1,13,0.00
2013-3-31,77,65,55,66,60,52,93,84,64,30.03,29.87,6,2,13,0.00
2013-4-1,81,71,56,65,61,53,92,74,49,29.95,29.84,7,2,13,0.00
2013-4-2,82,65,48,55,51,46,93,67,32,30.05,29.95,5,1,13,0.00
2013-4-3,64,60,55,62,56,52,93,89,79,30.00,29.73,12,1,15,0.57
2013-4-4,77,67,63,68,63,60,93,88,70,29.87,29.77,4,1,13,0.07
2013-4-5,64,58,46,61,52,44,92,82,66,30.02,29.78,6,2,13,0.00
2013-4-6,76,58,40,56,48,38,93,73,41,30.10,30.01,5,1,13,0.00
2013-4-7,65,61,59,60,57,56,92,89,83,30.03,30.00,0,0,13,0.00
2013-4-8,81,67,53,66,60,51,93,78,56,30.06,29.96,6,1,13,0.00
2013-4-9,84,70,58,65,60,56,92,74,50,30.06,29.97,6,2,13,0.00
2013-4-10,83,70,58,68,62,56,93,77,53,30.02,29.86,5,1,13,0.00
2013-4-11,80,72,62,72,68,60,93,87,74,29.85,29.63,8,3,17,0.40
2013-4-12,79,70,60,71,60,50,92,73,39,29.88,29.65,6,2,13,0.00
2013-4-13,82,67,53,59,52,48,85,62,30,29.97,29.85,5,1,13,0.00
2013-4-14,67,62,60,62,59,54,93,88,74,29.89,29.74,8,2,13,1.28
2013-4-15,83,69,58,73,64,56,93,85,69,30.00,29.79,2,0,13,0.00
2013-4-16,88,75,66,75,68,63,92,79,54,30.06,29.98,4,1,13,0.00
2013-4-17,86,75,67,70,67,63,92,78,55,30.09,29.98,3,1,13,0.00
2013-4-18,84,73,63,72,67,61,93,80,63,29.98,29.86,7,2,14,0.00
2013-4-19,80,66,48,75,62,46,92,87,66,30.06,29.79,7,3,13,0.36
2013-4-20,70,57,46,48,44,40,93,66,34,30.15,30.03,7,2,13,0.01
2013-4-21,78,63,47,60,49,42,90,62,34,30.13,30.02,7,1,13,0.00
2013-4-22,74,66,62,63,60,58,87,78,66,30.09,30.00,4,1,13,0.00
2013-4-23,63,61,59,60,58,57,92,91,89,30.03,30.02,0,0,13,0.00
2013-4-24,80,68,56,69,63,54,93,84,68,30.09,29.99,5,1,13,0.00
2013-4-25,84,72,64,69,64,54,93,78,50,30.17,30.04,3,1,13,0.06
2013-4-26,86,69,57,60,52,42,90,56,30,30.22,30.12,3,1,13,0.00
2013-4-27,85,71,59,68,63,56,92,78,56,30.16,30.02,6,2,14,0.00
2013-4-28,81,72,62,70,66,60,93,82,63,30.02,29.90,6,1,13,0.00
2013-4-29,81,71,63,70,66,61,93,85,64,29.93,29.86,5,1,13,0.05
2013-4-30,83,70,60,72,65,58,93,85,57,29.92,29.86,4,0,13,0.57
2013-5-1,71,68,66,68,65,63,92,90,82,29.94,29.84,5,2,13,0.12
2013-5-2,81,68,62,70,64,60,93,86,65,29.93,29.82,5,2,13,0.33
2013-5-3,69,66,64,66,63,62,93,91,84,29.84,29.73,6,2,13,0.06
2013-5-4,69,60,52,62,53,43,93,79,45,29.84,29.69,6,2,13,0.16
2013-5-5,74,60,43,64,50,41,93,71,46,29.89,29.75,10,3,15,0.04
2013-5-6,71,61,48,56,50,42,87,67,50,29.95,29.86,7,2,14,0.00
2013-5-7,77,66,56,63,58,53,89,76,57,29.97,29.86,6,2,13,0.00
2013-5-8,81,69,56,66,61,53,95,78,51,30.05,29.94,6,1,15,0.00
2013-5-9,83,70,57,70,62,55,93,76,49,30.08,30.00,5,1,13,0.00
2013-5-10,80,70,58,68,62,56,93,77,48,30.06,29.90,5,1,13,0.00
2013-5-11,78,70,65,72,67,62,93,89,75,29.98,29.89,4,1,13,0.12
2013-5-12,84,73,64,66,61,53,93,69,36,30.01,29.88,4,1,13,0.01
2013-5-13,79,67,53,56,47,39,83,53,26,30.16,30.01,5,1,13,0.00
2013-5-14,82,66,48,57,52,46,92,64,35,30.22,30.09,4,1,13,0.00
2013-5-15,85,70,54,64,58,52,93,70,39,30.16,30.00,4,1,13,0.00
2013-5-16,84,71,61,69,63,59,93,78,47,30.04,29.94,5,1,13,0.00
2013-5-17,86,72,59,69,63,56,93,76,45,30.03,29.93,4,1,13,0.01
2013-5-18,87,74,62,71,66,60,93,80,56,30.06,29.96,3,1,13,0.00
2013-5-19,88,76,65,72,67,63,93,78,51,30.02,29.93,4,1,13,0.01
2013-5-20,90,78,67,73,68,65,92,76,53,30.01,29.89,4,1,13,0.00
2013-5-21,91,77,63,72,67,61,93,75,45,29.96,29.84,5,1,13,0.00
2013-5-22,91,77,66,74,68,63,93,78,53,29.93,29.81,5,1,13,0.00
2013-5-23,92,79,66,74,70,63,93,76,51,29.96,29.88,5,1,13,0.00
2013-5-24,91,79,68,70,63,53,92,61,35,30.07,29.92,5,1,13,0.00
2013-5-25,90,74,60,61,56,50,85,55,32,30.17,30.06,4,1,13,0.00
2013-5-26,88,73,59,71,64,56,92,76,53,30.16,30.06,4,1,13,0.00
2013-5-27,90,74,61,71,64,58,93,75,40,30.13,30.01,5,1,15,0.00
2013-5-28,88,76,64,71,64,60,92,70,45,30.06,29.98,4,1,13,0.00
2013-5-29,89,78,68,73,68,62,92,73,53,30.04,29.96,5,1,13,0.00
2013-5-30,90,80,70,73,69,66,92,71,47,30.04,29.94,6,2,13,0.00
2013-5-31,87,79,70,73,70,67,92,76,56,30.03,29.94,5,1,13,0.00
2013-6-1,88,79,71,75,72,68,91,79,63,29.97,29.89,4,1,13,0.00
2013-6-2,93,78,70,77,72,67,92,82,58,29.93,29.79,6,1,13,0.00
2013-6-3,93,81,70,75,72,67,93,77,53,29.87,29.78,5,1,13,0.00
2013-6-4,91,80,72,76,73,69,92,79,57,29.91,29.84,5,1,13,0.00
2013-6-5,83,74,71,75,71,69,92,90,75,29.90,29.81,3,0,13,1.04
2013-6-6,83,75,70,72,70,67,93,84,67,29.83,29.59,6,2,13,0.14
2013-6-7,86,80,68,75,72,66,92,79,68,29.84,29.67,8,3,15,0.04
2013-6-8,89,80,69,76,72,66,92,79,56,29.98,29.83,4,1,13,0.02
2013-6-9,81,74,71,76,72,68,92,91,83,30.01,29.93,6,0,13,0.54
2013-6-10,86,78,71,78,73,68,92,85,70,30.02,29.94,4,1,13,0.01
2013-6-11,92,81,72,79,74,70,92,81,63,30.03,29.94,4,1,13,0.00
2013-6-12,93,83,72,81,76,70,92,81,59,30.02,29.92,4,1,13,0.00
2013-6-13,93,84,76,81,77,74,92,80,65,29.95,29.80,6,2,13,0.00
2013-6-14,94,85,78,80,76,71,91,77,51,29.86,29.76,4,1,13,0.00
2013-6-15,90,82,74,77,73,69,90,76,59,29.97,29.83,3,1,13,0.00
2013-6-16,92,82,74,79,74,71,92,79,56,30.01,29.93,4,1,13,0.00
2013-6-17,89,81,73,78,74,71,92,81,62,29.98,29.91,6,1,13,0.09
2013-6-18,90,82,75,77,74,71,89,77,61,29.95,29.86,6,2,13,0.00
2013-6-19,92,83,72,77,73,69,91,74,51,29.97,29.85,7,1,13,0.01
2013-6-20,91,80,72,77,73,69,92,81,56,30.02,29.93,4,0,13,0.12
2013-6-21,91,77,71,76,72,68,92,84,59,30.05,29.98,6,1,13,0.46
2013-6-22,87,77,70,76,72,68,93,84,64,30.05,29.96,3,0,13,0.00
2013-6-23,88,79,71,77,73,69,93,81,60,30.06,29.98,3,0,13,0.05
2013-6-24,92,79,71,77,72,69,93,83,57,30.11,30.02,5,0,13,0.48
2013-6-25,92,81,71,78,73,69,93,78,56,30.08,29.95,3,0,13,0.00
2013-6-26,92,81,72,79,74,70,92,80,57,30.02,29.91,4,0,13,0.12
2013-6-27,92,83,72,79,75,69,92,80,61,29.96,29.84,5,1,13,0.00
2013-6-28,90,80,71,79,74,68,92,83,58,29.88,29.72,6,1,13,1.43
2013-6-29,86,76,69,79,73,66,93,88,74,29.78,29.64,6,1,13,2.36
2013-6-30,85,77,73,77,73,69,92,88,74,29.71,29.64,4,0,13,0.38
2013-7-1,88,78,70,79,72,67,93,82,63,29.84,29.69,5,1,13,0.01
2013-7-2,90,80,71,77,72,68,93,79,55,29.96,29.82,4,1,13,0.00
2013-7-3,77,74,72,74,71,70,93,92,89,30.00,29.91,5,1,13,2.94
2013-7-4,76,73,71,72,71,69,93,92,85,30.00,29.90,5,2,13,5.30
2013-7-5,79,74,71,75,72,68,93,91,83,30.05,29.98,3,0,13,2.52
2013-7-6,81,75,72,76,72,70,93,92,84,30.02,29.95,3,0,13,1.18
2013-7-7,88,78,72,78,73,69,93,87,69,30.06,29.98,4,0,13,0.39
2013-7-8,91,78,72,80,73,69,92,86,60,30.10,30.04,4,0,13,2.17
2013-7-9,92,80,70,79,74,68,92,82,59,30.12,30.02,3,0,13,0.02
2013-7-10,92,80,73,78,74,71,92,83,60,30.04,29.92,4,0,13,0.01
2013-7-11,88,80,73,78,74,71,92,83,67,29.93,29.82,5,1,13,0.16
2013-7-12,88,79,73,77,74,70,92,84,66,29.85,29.78,4,1,13,0.00
2013-7-13,86,77,70,76,71,67,92,83,67,29.91,29.81,2,0,13,0.00
2013-7-14,86,78,72,78,74,70,92,86,70,29.99,29.84,5,1,13,0.55
2013-7-15,90,80,73,75,73,71,93,81,55,30.07,29.97,6,1,13,0.00
2013-7-16,92,80,74,76,73,71,92,82,53,30.12,30.02,5,1,13,0.18
2013-7-17,92,82,72,77,73,70,93,78,52,30.14,30.01,3,1,13,0.01
2013-7-18,92,80,72,76,73,70,93,81,52,30.06,29.96,5,0,13,0.54
2013-7-19,85,77,72,77,73,69,93,87,70,30.03,29.93,2,0,13,0.26
2013-7-20,86,78,73,79,74,71,93,88,68,29.99,29.89,6,1,13,0.44
2013-7-21,89,80,73,78,75,71,93,83,67,30.01,29.93,7,2,14,0.02
2013-7-22,82,74,72,76,72,70,93,91,82,30.05,29.95,9,1,13,2.82
2013-7-23,88,79,70,81,74,68,93,86,72,29.97,29.87,8,2,14,0.33
2013-7-24,89,80,71,81,76,68,93,87,76,29.88,29.80,7,2,13,0.32
2013-8-4,90,82,77,78,76,73,89,82,68,29.96,29.89,6,0,13,0.00
2013-8-5,92,82,75,81,76,72,92,83,63,29.95,29.86,6,0,13,1.17
2013-8-6,84,78,74,77,74,71,93,90,77,29.91,29.84,1,0,13,0.00
2013-8-7,93,80,75,80,76,73,93,88,63,29.91,29.82,3,0,13,0.17
2013-8-8,90,78,75,80,75,73,93,90,70,29.92,29.86,2,0,13,0.45
2013-8-9,90,81,74,80,75,72,93,84,67,29.99,29.90,3,0,13,0.26
2013-8-10,87,78,74,80,75,72,93,88,70,30.05,29.96,4,0,13,1.45
2013-8-11,94,82,73,79,74,71,93,78,53,30.09,30.00,4,0,13,0.00
2013-8-12,93,83,74,80,75,71,93,79,57,30.05,29.95,4,1,13,0.00
2013-8-13,88,79,74,81,75,72,93,88,71,29.98,29.87,3,0,13,0.71
2013-8-14,92,81,74,79,75,71,92,82,57,29.89,29.81,5,1,13,0.07
2013-8-15,88,79,74,78,75,72,93,87,69,29.92,29.84,5,0,13,0.64
2013-8-16,82,77,73,77,74,71,93,90,82,29.95,29.86,2,0,13,0.97
2013-8-17,75,73,71,72,71,69,93,93,92,29.98,29.89,3,0,13,3.47
2013-8-18,87,75,70,80,72,68,94,91,76,30.02,29.93,5,0,13,2.16
2013-8-19,92,79,72,80,74,70,93,86,60,30.00,29.91,4,0,13,0.66
2013-8-20,90,77,73,79,73,70,93,88,62,30.03,29.91,4,0,13,0.02
2013-8-21,91,76,71,80,72,69,93,87,63,30.06,30.00,6,0,13,0.11
2013-8-22,82,77,74,74,72,71,90,85,75,29.98,29.92,1,0,13,0.01
2013-8-23,84,75,71,77,72,69,93,90,78,29.97,29.88,4,0,13,0.49
2013-8-24,85,78,73,77,74,70,93,88,70,30.06,29.93,3,0,13,0.01
2013-8-25,86,78,73,76,73,71,93,87,70,30.14,30.05,4,1,13,0.15
2013-8-26,89,79,70,73,70,67,93,77,56,30.12,30.01,4,1,13,0.00
2013-8-27,92,79,68,77,71,66,93,77,54,30.04,29.94,3,0,13,0.00
2013-8-28,93,81,70,76,72,68,93,76,53,29.99,29.91,3,0,13,0.00
2013-8-29,94,83,72,75,73,70,93,74,48,29.98,29.88,3,0,13,0.00
2013-8-30,95,83,75,79,75,72,92,77,56,29.93,29.82,7,1,13,0.25
2013-8-31,92,78,74,80,74,71,93,88,65,29.87,29.79,4,0,13,1.70
2013-9-1,88,80,74,80,76,72,93,88,74,29.88,29.80,3,0,13,0.41
2013-9-2,87,77,74,81,74,71,93,91,76,29.93,29.84,4,0,13,0.66
2013-9-3,92,80,72,79,74,70,93,84,61,29.93,29.84,3,0,13,0.04
2013-9-4,92,80,71,80,74,69,93,83,63,30.01,29.90,5,0,13,0.01
2013-9-5,95,82,72,78,74,70,93,78,52,30.04,29.95,3,0,13,0.00
2013-9-6,96,82,74,79,73,69,92,78,51,30.01,29.90,4,0,13,0.25
2013-9-7,92,81,73,75,72,69,93,77,49,29.98,29.89,2,0,13,0.01
2013-9-8,93,81,71,76,71,67,93,74,44,29.93,29.85,2,0,13,0.00
2013-9-9,93,80,69,76,72,67,93,79,50,29.98,29.89,2,0,13,0.14
2013-9-10,91,81,73,74,72,70,91,76,53,30.07,29.97,4,1,13,0.00
2013-9-11,92,80,70,76,71,67,91,77,50,30.06,29.95,3,1,13,0.07
2013-9-12,92,80,71,75,72,69,93,78,49,29.98,29.84,2,0,13,0.01
2013-9-13,95,81,70,76,71,68,93,75,43,29.86,29.73,4,0,13,0.00
2013-9-14,92,80,71,76,72,69,92,79,57,29.91,29.77,3,0,13,0.00
2013-9-15,95,81,70,78,71,66,90,75,49,30.00,29.90,4,0,13,0.00
2013-9-16,92,79,73,78,74,71,93,84,61,30.01,29.92,3,0,13,0.32
2013-9-17,93,79,72,78,74,70,93,83,55,30.00,29.91,3,0,13,0.01
2013-9-18,88,78,71,75,72,69,92,80,64,30.03,29.94,5,1,13,0.00
2013-9-19,89,79,68,74,70,65,90,77,56,30.02,29.93,3,0,13,0.00
2013-9-20,90,78,71,77,72,68,93,85,61,29.96,29.82,4,0,13,1.96
2013-9-21,82,74,70,76,72,68,93,92,80,29.83,29.68,3,0,13,1.29
2013-9-22,79,75,73,76,72,70,92,91,88,29.73,29.66,3,0,13,1.09
2013-9-23,87,78,73,79,74,70,93,87,69,29.82,29.72,1,0,13,0.38
2013-9-24,86,77,71,78,74,68,94,90,76,29.84,29.73,8,0,13,2.12
2013-9-25,89,77,69,80,73,67,93,87,71,29.75,29.66,4,0,13,0.01
2013-9-26,84,75,68,73,70,65,94,83,63,29.89,29.72,3,1,13,0.01
2013-9-27,84,73,65,68,63,61,93,75,50,29.97,29.88,5,1,13,0.00
2013-9-28,84,73,64,70,64,59,89,75,58,30.02,29.93,5,1,13,0.00
2013-9-29,86,74,62,69,64,59,90,73,47,29.99,29.86,2,0,13,0.00
2013-9-30,81,72,67,74,68,63,92,86,74,29.95,29.86,2,0,13,0.02
2013-10-1,85,75,66,74,70,64,93,83,66,30.00,29.92,2,0,13,0.00
2013-10-2,82,75,70,73,70,67,92,85,72,30.01,29.94,2,0,13,0.00
2013-10-3,87,75,67,74,69,65,93,83,56,30.02,29.93,3,0,13,0.00
2013-10-4,90,77,69,77,71,67,93,83,54,30.02,29.93,2,0,13,0.00
2013-10-5,89,76,69,78,72,67,93,88,60,29.99,29.90,3,0,13,0.01
2013-10-6,80,72,68,74,70,66,93,91,80,29.90,29.74,3,0,13,0.57
2013-10-7,83,74,68,74,69,60,93,84,71,29.84,29.69,4,1,13,0.13
2013-10-8,85,73,63,72,65,57,88,76,62,29.93,29.82,2,0,13,0.00
2013-10-9,79,70,63,68,64,60,92,84,68,30.04,29.93,4,1,13,0.00
2013-10-10,86,71,59,68,63,57,93,78,51,30.04,29.93,2,0,13,0.00
2013-10-11,87,72,60,69,63,58,93,76,46,30.00,29.89,2,0,13,0.01
2013-10-12,86,72,62,70,63,60,93,76,44,30.01,29.92,3,0,13,0.00
2013-10-13,85,72,59,66,62,57,93,75,45,30.07,29.97,4,1,13,0.00
2013-10-14,83,72,64,69,64,60,91,77,55,30.04,29.94,4,1,13,0.00
2013-10-15,82,70,61,69,64,59,93,82,60,30.00,29.89,3,0,13,0.00
2013-10-16,86,72,61,69,64,59,93,79,50,29.95,29.86,1,0,13,0.00
2013-10-17,86,73,62,72,67,60,93,81,59,29.92,29.83,3,0,13,0.00
2013-10-18,79,73,70,74,70,67,93,89,81,29.92,29.82,2,0,13,0.07
2013-10-19,73,69,66,70,66,61,93,90,83,29.90,29.82,2,0,13,0.36
2013-10-20,80,69,64,66,62,60,91,79,57,29.95,29.86,3,0,13,0.00
2013-10-21,78,69,63,70,64,59,92,85,75,29.97,29.88,1,0,13,0.00
2013-10-22,74,68,62,70,66,60,93,91,83,29.90,29.79,1,0,13,0.09
2013-10-23,76,65,55,61,52,44,93,66,36,30.02,29.84,6,1,13,0.01
2013-10-24,79,60,44,53,48,42,93,69,35,30.16,30.02,2,0,13,0.00
2013-10-25,72,58,49,52,46,37,93,67,36,30.26,30.12,6,1,13,0.00
2013-10-26,73,56,42,50,42,36,90,65,35,30.22,30.10,2,0,13,0.00
2013-10-27,79,59,42,57,49,40,93,73,40,30.12,30.02,1,0,13,0.00
2013-10-28,82,65,51,62,56,49,93,75,43,30.16,30.05,2,0,13,0.00
2013-10-29,82,66,53,63,58,51,93,78,46,30.21,30.11,3,0,13,0.00
2013-10-30,83,68,58,66,60,56,95,79,49,30.19,30.05,3,0,13,0.00
2013-10-31,82,72,61,72,67,58,93,85,63,30.05,29.85,6,1,15,0.01
2013-11-1,81,74,66,76,71,64,93,91,83,29.85,29.70,7,2,13,0.24
2013-11-2,78,66,55,64,55,46,93,71,37,29.99,29.79,4,1,13,0.00
2013-11-3,71,58,49,48,45,43,87,65,38,30.16,29.99,5,1,13,0.00
2013-11-4,75,61,49,57,51,43,82,70,51,30.20,30.13,5,2,13,0.00
2013-11-5,77,64,54,61,55,46,81,71,57,30.20,30.09,6,3,14,0.00
2013-11-6,82,70,60,68,63,55,91,81,61,30.11,30.00,4,1,13,0.00
2013-11-7,78,64,50,70,60,43,93,85,75,30.11,29.96,4,1,13,0.11
2013-11-8,67,54,44,45,41,38,80,64,43,30.19,30.08,6,3,13,0.00
2013-11-9,75,65,49,60,56,43,92,74,57,30.19,30.10,3,0,13,0.00
2013-11-10,78,63,53,64,56,51,93,80,52,30.18,30.07,4,1,13,0.00
2013-11-11,79,61,46,58,52,44,93,75,42,30.15,30.05,2,0,13,0.00
2013-11-12,74,59,46,55,48,33,93,69,40,30.26,30.03,7,1,16,0.00
2013-11-13,56,44,37,33,26,22,66,51,30,30.38,30.25,8,4,13,0.00
2013-11-14,68,52,37,50,40,25,82,65,52,30.34,30.13,3,1,13,0.00
2013-11-15,65,60,55,62,57,50,93,90,81,30.13,29.97,3,0,13,0.03
2013-11-16,78,67,58,67,62,56,93,85,68,30.06,29.97,3,1,13,0.03
2013-11-17,79,72,67,74,69,64,93,90,82,29.98,29.90,5,1,13,0.04
2013-11-18,74,71,60,72,68,51,93,91,73,29.94,29.85,3,0,13,0.22
2013-11-19,69,58,48,50,46,42,81,65,43,30.01,29.90,5,1,13,0.00
2013-11-20,73,61,52,61,53,45,85,76,64,30.10,29.97,4,1,13,0.00
2013-11-21,78,66,55,67,60,51,90,81,68,30.17,30.08,4,2,13,0.00
2013-11-22,75,66,61,68,63,59,93,89,78,30.19,30.07,2,0,13,0.00
2013-11-23,74,66,56,67,61,50,93,86,73,30.11,30.01,3,1,13,0.00
2013-11-24,56,49,43,50,35,30,79,59,46,30.26,30.09,7,3,13,0.00
2013-11-25,61,53,43,56,44,34,87,72,65,30.24,29.94,4,2,13,0.00
2013-11-26,72,62,50,70,60,48,94,93,88,29.95,29.56,8,3,13,2.64
2013-11-27,51,44,35,49,38,30,94,80,59,30.25,29.72,9,3,13,0.03
2013-11-28,53,40,29,34,30,25,86,71,42,30.39,30.25,3,0,13,0.00
2013-11-29,63,46,32,43,36,29,91,69,42,30.44,30.31,4,1,13,0.00
2013-11-30,70,53,38,55,44,33,86,72,57,30.35,30.18,3,1,13,0.00
2013-12-1,71,56,46,56,49,42,93,79,56,30.19,29.93,2,0,13,0.00
2013-12-2,71,58,49,58,52,48,93,82,60,29.94,29.76,1,0,13,0.00
2013-12-3,76,64,54,66,60,52,93,87,71,29.84,29.76,6,1,13,0.01
2013-12-4,77,68,57,71,65,55,93,89,78,29.95,29.83,5,1,13,0.04
2013-12-5,80,73,67,74,70,65,93,89,76,30.03,29.94,7,2,13,0.06
2013-12-6,80,73,66,72,69,64,93,89,77,30.05,29.96,6,2,13,0.01
2013-12-7,73,66,58,71,63,55,93,89,78,30.15,30.03,3,1,13,0.00
2013-12-8,80,68,57,71,64,55,93,88,69,30.13,30.00,6,1,13,0.00
2013-12-9,80,73,69,73,69,66,92,90,76,30.05,29.98,6,1,14,0.40
2013-12-10,72,60,43,70,55,39,92,85,70,30.24,29.96,7,2,13,0.00
2013-12-11,67,52,39,52,44,35,87,77,57,30.28,30.19,3,0,13,0.00
2013-12-12,62,50,35,46,37,30,88,63,30,30.36,30.20,5,1,13,0.00
2013-12-13,66,49,34,51,40,28,91,72,50,30.28,30.01,2,0,13,0.00
2013-12-14,69,62,50,67,60,48,93,92,89,30.01,29.78,4,1,13,0.55
2013-12-15,62,48,37,60,45,34,94,87,78,30.18,29.82,5,1,13,0.03
2013-12-16,62,44,33,43,37,31,93,78,42,30.24,30.15,3,0,13,0.00
2013-12-17,68,47,32,46,38,30,93,75,32,30.26,30.14,3,0,13,0.00
2013-12-18,66,49,37,43,38,34,93,70,32,30.29,30.18,4,1,13,0.00
2013-12-19,71,50,36,54,42,33,93,76,47,30.23,30.10,3,0,13,0.00
2013-12-20,76,60,41,67,56,39,93,87,72,30.11,30.00,4,1,13,0.01
2013-12-21,78,72,64,71,68,62,92,88,79,29.99,29.88,7,3,13,0.00
2013-12-22,79,74,72,73,71,69,93,90,84,29.98,29.89,6,4,13,0.00
2013-12-23,74,56,45,71,54,41,93,91,81,30.23,29.93,6,2,13,1.09
2013-12-24,57,44,34,40,34,31,88,70,39,30.36,30.23,6,2,13,0.00
2013-12-25,60,45,30,46,37,27,89,76,53,30.30,30.16,3,0,13,0.00
2013-12-26,60,51,44,50,45,41,90,81,68,30.23,30.14,5,1,13,0.01
2013-12-27,59,54,48,50,46,44,88,75,66,30.28,30.18,4,2,13,0.00
2013-12-28,69,59,50,67,55,46,93,87,79,30.20,29.79,7,2,13,0.65
2013-12-29,69,58,45,67,54,43,93,87,72,30.03,29.76,8,1,16,0.03
2013-12-30,63,52,41,53,47,39,93,85,60,30.18,30.03,1,0,13,0.01
2013-12-31,53,52,51,51,48,46,91,87,81,30.30,30.17,3,1,13,0.00
2014-1-2,56,47,38,53,40,31,89,77,69,30.12,29.86,7,3,13,0.45